Time;durP1;ratioP1;P1;durP2;ratioP2;P2;SDS_P1;SDS_P2;PMS_P1;PMS_P2;Temp;Humidity;BMP_temperature;BMP_pressure;BME280_temperature;BME280_humidity;BME280_pressure;Samples;Min_cycle;Max_cycle;Signal;HPM_P1;HPM_P2
2023/06/09 00:05:01;;;;;;;3.33;2.25;;;;;;;;;;20993943;28;20048;-67
2023/06/09 00:15:02;;;;;;;6.60;2.90;;;;;;;;;;20992693;28;20495;-66
2023/06/09 00:25:03;;;;;;;7.38;3.25;;;;;;;;;;20996472;28;20048;-67
2023/06/09 00:35:05;;;;;;;4.95;3.15;;;;;;;;;;21005978;28;20052;-66
2023/06/09 00:45:06;;;;;;;7.97;3.47;;;;;;;;;;21005892;28;20062;-66
2023/06/09 00:55:07;;;;;;;6.93;3.45;;;;;;;;;;21005725;28;20083;-67
2023/06/09 01:05:09;;;;;;;6.68;3.38;;;;;;;;;;21005231;28;20083;-67
2023/06/09 01:15:31;;;;;;;6.75;3.92;;;;;;;;;;21005506;28;20044;-65
2023/06/09 01:25:42;;;;;;;7.80;3.25;;;;;;;;;;20996556;28;20071;-66
2023/06/09 01:35:44;;;;;;;8.43;4.07;;;;;;;;;;21001850;28;20135;-67
2023/06/09 01:45:45;;;;;;;4.93;3.30;;;;;;;;;;21003492;28;20060;-66
2023/06/09 01:55:49;;;;;;;5.80;2.97;;;;;;;;;;21002423;28;20103;-66
2023/06/09 02:05:53;;;;;;;4.43;2.92;;;;;;;;;;21001523;28;20052;-66
2023/06/09 02:15:55;;;;;;;4.68;2.63;;;;;;;;;;21000592;28;20097;-66
2023/06/09 02:25:56;;;;;;;5.32;2.40;;;;;;;;;;20999925;28;20049;-67
2023/06/09 02:35:58;;;;;;;3.08;1.92;;;;;;;;;;20997844;28;20082;-67
2023/06/09 02:45:59;;;;;;;2.97;1.48;;;;;;;;;;20997100;28;20044;-67
2023/06/09 02:56:01;;;;;;;2.33;1.10;;;;;;;;;;20997886;28;20051;-67
2023/06/09 03:06:02;;;;;;;2.30;0.88;;;;;;;;;;20997637;28;20047;-66
2023/06/09 03:16:03;;;;;;;1.48;0.60;;;;;;;;;;20997151;28;20044;-66
2023/06/09 03:26:05;;;;;;;2.05;1.02;;;;;;;;;;20996555;28;20041;-66
2023/06/09 03:36:08;;;;;;;1.30;0.70;;;;;;;;;;20996569;28;20514;-67
2023/06/09 03:46:09;;;;;;;0.95;0.52;;;;;;;;;;20995865;28;20064;-66
2023/06/09 03:56:11;;;;;;;0.43;0.20;;;;;;;;;;20995410;28;20425;-65
2023/06/09 04:06:12;;;;;;;0.30;0.30;;;;;;;;;;21008219;28;20044;-66
2023/06/09 04:16:13;;;;;;;1.80;0.40;;;;;;;;;;21010208;28;20044;-66
2023/06/09 04:26:15;;;;;;;2.45;0.60;;;;;;;;;;21009347;28;20103;-65
2023/06/09 04:36:17;;;;;;;2.45;0.75;;;;;;;;;;21008609;28;20067;-66
2023/06/09 04:46:18;;;;;;;1.73;1.10;;;;;;;;;;21008138;28;20067;-66
2023/06/09 04:56:20;;;;;;;2.63;1.35;;;;;;;;;;21005798;28;20123;-66
2023/06/09 05:06:21;;;;;;;1.42;0.88;;;;;;;;;;21006122;28;20059;-66
2023/06/09 05:16:25;;;;;;;2.00;0.80;;;;;;;;;;21005502;28;20433;-67
2023/06/09 05:26:27;;;;;;;1.90;1.05;;;;;;;;;;21004289;28;20048;-66
2023/06/09 05:36:29;;;;;;;5.78;1.40;;;;;;;;;;21003986;28;20067;-67
2023/06/09 05:46:30;;;;;;;4.43;1.52;;;;;;;;;;21003191;28;20378;-66
2023/06/09 05:56:32;;;;;;;3.42;1.65;;;;;;;;;;21000571;28;20124;-66
2023/06/09 06:06:34;;;;;;;3.72;2.33;;;;;;;;;;21000884;28;20489;-66
2023/06/09 06:16:36;;;;;;;6.35;3.30;;;;;;;;;;20998836;28;20052;-66
2023/06/09 06:26:38;;;;;;;5.97;3.25;;;;;;;;;;20998736;28;20048;-66
2023/06/09 06:36:39;;;;;;;5.05;3.30;;;;;;;;;;20997179;28;20056;-67
2023/06/09 06:46:41;;;;;;;9.32;3.85;;;;;;;;;;20996713;28;20044;-66
2023/06/09 06:56:42;;;;;;;5.57;2.60;;;;;;;;;;20995639;28;20041;-67
2023/06/09 07:06:43;;;;;;;5.43;2.05;;;;;;;;;;20997604;28;20051;-67
2023/06/09 07:16:44;;;;;;;6.97;1.42;;;;;;;;;;20996715;28;20044;-66
2023/06/09 07:26:45;;;;;;;1.90;1.00;;;;;;;;;;20992835;28;20048;-61
2023/06/09 07:36:50;;;;;;;5.90;1.60;;;;;;;;;;20923633;28;20049;-67
2023/06/09 07:46:51;;;;;;;6.72;1.30;;;;;;;;;;20929293;28;20041;-67
2023/06/09 07:56:52;;;;;;;6.65;1.90;;;;;;;;;;20926514;28;20048;-66
2023/06/09 08:06:54;;;;;;;7.38;1.85;;;;;;;;;;20926301;28;20052;-66
2023/06/09 08:16:55;;;;;;;7.88;1.95;;;;;;;;;;20927495;28;20394;-66
2023/06/09 08:26:58;;;;;;;6.63;1.63;;;;;;;;;;20924569;28;20053;-67
2023/06/09 08:36:59;;;;;;;3.60;1.38;;;;;;;;;;20920700;28;20474;-66
2023/06/09 08:47:02;;;;;;;5.15;1.58;;;;;;;;;;20919843;28;20375;-66
2023/06/09 08:57:03;;;;;;;5.13;1.40;;;;;;;;;;20919465;28;20048;-67
2023/06/09 09:07:05;;;;;;;7.88;1.42;;;;;;;;;;20918590;28;20126;-68
2023/06/09 09:17:10;;;;;;;6.13;1.80;;;;;;;;;;20916086;28;20132;-66
2023/06/09 09:27:19;;;;;;;6.72;1.80;;;;;;;;;;20877606;28;1143451;-65
2023/06/09 09:37:20;;;;;;;6.07;1.60;;;;;;;;;;20920908;28;20517;-62
2023/06/09 09:47:23;;;;;;;7.00;2.00;;;;;;;;;;20920231;28;20120;-61
2023/06/09 09:57:25;;;;;;;13.52;6.57;;;;;;;;;;20945485;28;20138;-65
2023/06/09 10:07:27;;;;;;;13.52;7.05;;;;;;;;;;21000377;28;20051;-63
2023/06/09 10:17:29;;;;;;;6.35;2.80;;;;;;;;;;20999190;28;20389;-65
2023/06/09 10:27:30;;;;;;;12.40;4.95;;;;;;;;;;20997686;28;20080;-65
2023/06/09 10:37:32;;;;;;;8.95;3.72;;;;;;;;;;20995681;28;20109;-60
2023/06/09 10:47:50;;;;;;;18.58;9.65;;;;;;;;;;20999061;28;20505;-62
2023/06/09 10:57:52;;;;;;;17.57;9.30;;;;;;;;;;21021678;28;20149;-64
2023/06/09 11:08:03;;;;;;;16.88;9.18;;;;;;;;;;20994926;28;20438;-70
2023/06/09 11:18:15;;;;;;;13.18;5.45;;;;;;;;;;20994994;28;20048;-71
2023/06/09 11:28:17;;;;;;;28.85;15.23;;;;;;;;;;21011682;28;20056;-64
2023/06/09 11:38:21;;;;;;;25.33;14.35;;;;;;;;;;21075738;28;20040;-63
2023/06/09 11:48:22;;;;;;;21.17;10.23;;;;;;;;;;21076462;28;20060;-61
2023/06/09 11:58:23;;;;;;;12.15;5.43;;;;;;;;;;21076038;28;20051;-60
2023/06/09 12:08:24;;;;;;;9.77;3.00;;;;;;;;;;21076197;28;20044;-68
2023/06/09 12:18:25;;;;;;;7.93;2.45;;;;;;;;;;21076851;28;20040;-67
2023/06/09 12:28:29;;;;;;;9.38;2.30;;;;;;;;;;21090185;28;20048;-67
2023/06/09 12:38:30;;;;;;;4.20;1.63;;;;;;;;;;21089879;28;20481;-67
2023/06/09 12:48:31;;;;;;;8.85;2.78;;;;;;;;;;21088953;28;20052;-67
2023/06/09 12:58:32;;;;;;;5.15;1.98;;;;;;;;;;21088828;28;20477;-67
2023/06/09 13:08:33;;;;;;;7.75;2.55;;;;;;;;;;21088581;28;20040;-67
2023/06/09 13:18:35;;;;;;;7.28;2.17;;;;;;;;;;21087794;28;20439;-67
2023/06/09 13:28:36;;;;;;;7.88;2.10;;;;;;;;;;21084918;28;20095;-67
2023/06/09 13:38:39;;;;;;;6.25;2.30;;;;;;;;;;21084715;28;20117;-67
2023/06/09 13:48:40;;;;;;;4.82;1.90;;;;;;;;;;21086162;28;20059;-67
2023/06/09 13:58:41;;;;;;;6.03;1.83;;;;;;;;;;21084364;28;20040;-67
2023/06/09 14:08:42;;;;;;;6.65;1.63;;;;;;;;;;21084736;28;20504;-67
2023/06/09 14:18:43;;;;;;;5.38;1.80;;;;;;;;;;21082816;28;20040;-67
2023/06/09 14:28:44;;;;;;;4.13;1.00;;;;;;;;;;21082772;28;20052;-66
2023/06/09 14:38:45;;;;;;;6.57;1.90;;;;;;;;;;21082152;28;20047;-68
2023/06/09 14:48:47;;;;;;;4.90;1.40;;;;;;;;;;21081325;28;20048;-67
2023/06/09 14:58:48;;;;;;;5.95;1.35;;;;;;;;;;21081211;28;20054;-66
2023/06/09 15:08:52;;;;;;;2.88;1.30;;;;;;;;;;21080927;28;20048;-67
2023/06/09 15:18:54;;;;;;;4.45;1.83;;;;;;;;;;21065411;28;20052;-67
2023/06/09 15:28:55;;;;;;;6.32;1.30;;;;;;;;;;20994208;28;20049;-67
2023/06/09 15:38:57;;;;;;;5.60;2.22;;;;;;;;;;20995418;28;20072;-62
2023/06/09 15:48:58;;;;;;;5.13;1.27;;;;;;;;;;20981506;28;20510;-61
2023/06/09 15:58:59;;;;;;;3.53;1.30;;;;;;;;;;20967598;28;20474;-60
2023/06/09 16:09:00;;;;;;;6.13;1.50;;;;;;;;;;21003127;28;20490;-63
2023/06/09 16:19:02;;;;;;;2.95;1.15;;;;;;;;;;21002118;28;20477;-61
2023/06/09 16:29:03;;;;;;;5.35;1.80;;;;;;;;;;20998712;28;20052;-61
2023/06/09 16:39:05;;;;;;;6.85;1.40;;;;;;;;;;20999375;28;20451;-63
2023/06/09 16:49:06;;;;;;;2.05;1.17;;;;;;;;;;21001132;28;20482;-64
2023/06/09 16:59:07;;;;;;;6.93;2.00;;;;;;;;;;20997936;28;20527;-62
2023/06/09 17:09:08;;;;;;;4.10;1.20;;;;;;;;;;21000898;28;20393;-64
2023/06/09 17:19:10;;;;;;;6.45;1.45;;;;;;;;;;21001143;28;20109;-61
2023/06/09 17:29:12;;;;;;;5.18;1.42;;;;;;;;;;20962855;28;20088;-62
2023/06/09 17:39:13;;;;;;;3.97;1.45;;;;;;;;;;21001424;28;20375;-65
2023/06/09 17:49:15;;;;;;;10.13;8.45;;;;;;;;;;20999512;28;20049;-63
2023/06/09 17:59:17;;;;;;;7.07;3.10;;;;;;;;;;20982367;28;20477;-63
2023/06/09 18:09:18;;;;;;;8.30;3.25;;;;;;;;;;20974193;28;20512;-63
2023/06/09 18:19:19;;;;;;;15.93;9.63;;;;;;;;;;20987033;28;20040;-63
2023/06/09 18:29:20;;;;;;;15.20;10.07;;;;;;;;;;20995259;28;20048;-60
2023/06/09 18:39:22;;;;;;;17.35;10.98;;;;;;;;;;20996917;28;20051;-63
2023/06/09 18:49:23;;;;;;;10.70;5.72;;;;;;;;;;20995203;28;20136;-68
2023/06/09 18:59:24;;;;;;;4.60;2.53;;;;;;;;;;20939895;28;20116;-66
2023/06/09 19:09:25;;;;;;;8.35;5.03;;;;;;;;;;20981277;28;20044;-65
2023/06/09 19:19:26;;;;;;;6.15;3.05;;;;;;;;;;20991271;28;20068;-61
2023/06/09 19:29:28;;;;;;;11.27;4.57;;;;;;;;;;20998369;28;20502;-68
2023/06/09 19:39:30;;;;;;;10.77;5.88;;;;;;;;;;20995972;28;20057;-66
2023/06/09 19:49:31;;;;;;;7.60;2.45;;;;;;;;;;20998125;28;20500;-69
2023/06/09 19:59:33;;;;;;;10.82;4.20;;;;;;;;;;21002218;28;20099;-61
2023/06/09 20:09:34;;;;;;;5.63;2.67;;;;;;;;;;20995158;28;20041;-68
2023/06/09 20:19:39;;;;;;;5.15;2.22;;;;;;;;;;21006190;28;20048;-69
2023/06/09 20:29:41;;;;;;;8.82;3.30;;;;;;;;;;21001567;28;20064;-68
2023/06/09 20:39:42;;;;;;;4.28;2.30;;;;;;;;;;21000892;28;20036;-69
2023/06/09 20:49:44;;;;;;;6.60;3.85;;;;;;;;;;21005636;28;20109;-69
2023/06/09 20:59:46;;;;;;;7.55;3.35;;;;;;;;;;21006226;28;20508;-69
2023/06/09 21:09:47;;;;;;;6.75;2.40;;;;;;;;;;21004566;28;20040;-68
2023/06/09 21:19:48;;;;;;;5.80;2.17;;;;;;;;;;21004919;28;20052;-69
2023/06/09 21:29:49;;;;;;;5.82;2.70;;;;;;;;;;21003805;28;20056;-68
2023/06/09 21:39:50;;;;;;;6.28;2.55;;;;;;;;;;21003733;28;20051;-69
2023/06/09 21:49:53;;;;;;;8.68;3.50;;;;;;;;;;21002019;28;20048;-69
2023/06/09 21:59:54;;;;;;;6.85;2.70;;;;;;;;;;21000082;28;20076;-69
2023/06/09 22:09:56;;;;;;;9.43;2.83;;;;;;;;;;21000398;28;20049;-68
2023/06/09 22:19:57;;;;;;;5.97;2.35;;;;;;;;;;20999037;28;20482;-68
2023/06/09 22:29:58;;;;;;;3.63;2.10;;;;;;;;;;20997414;28;20059;-69
2023/06/09 22:39:59;;;;;;;8.38;2.63;;;;;;;;;;20999102;28;20468;-69
2023/06/09 22:50:01;;;;;;;12.50;5.05;;;;;;;;;;20998693;28;20119;-69
2023/06/09 23:00:05;;;;;;;5.05;2.00;;;;;;;;;;20998537;28;20439;-68
2023/06/09 23:10:07;;;;;;;8.98;4.00;;;;;;;;;;20998331;28;20045;-69
2023/06/09 23:20:10;;;;;;;6.78;2.13;;;;;;;;;;21000209;28;20076;-70
2023/06/09 23:30:12;;;;;;;5.05;1.17;;;;;;;;;;20996072;28;20505;-69
2023/06/09 23:40:14;;;;;;;3.28;1.30;;;;;;;;;;20996505;28;20040;-69
2023/06/09 23:50:15;;;;;;;3.35;0.90;;;;;;;;;;20996424;28;20109;-69
